Time;durP1;ratioP1;P1;durP2;ratioP2;P2;SDS_P1;SDS_P2;PMS_P1;PMS_P2;Temp;Humidity;BMP_temperature;BMP_pressure;BME280_temperature;BME280_humidity;BME280_pressure;Samples;Min_cycle;Max_cycle;Signal;HPM_P1;HPM_P2
2021/07/18 00:02:23;;;;;;;;;;;;;;;20.73;60.04;99881.53;5157557;27;776;-58
2021/07/18 00:04:50;;;;;;;;;;;;;;;21.08;58.81;99874.06;5157447;27;1085;-57
2021/07/18 00:07:15;;;;;;;;;;;;;;;21.05;58.94;99876.69;5157601;27;819;-54
2021/07/18 00:09:41;;;;;;;;;;;;;;;21.23;58.37;99880.25;5157453;27;1910;-55
2021/07/18 00:12:06;;;;;;;;;;;;;;;21.22;58.23;99875.84;5157064;27;972;-46
2021/07/18 00:14:32;;;;;;;;;;;;;;;21.08;58.81;99868.53;5157288;27;787;-57
2021/07/18 00:16:58;;;;;;;;;;;;;;;20.83;56.86;99875.69;5157144;27;747;-47
2021/07/18 00:19:23;;;;;;;;;;;;;;;20.86;59.72;99872.31;5158468;27;867;-55
2021/07/18 00:21:49;;;;;;;;;;;;;;;20.90;60.36;99861.41;5142798;27;1103;-53
2021/07/18 00:24:14;;;;;;;;;;;;;;;21.28;59.77;99871.78;5161300;27;779;-50
2021/07/18 00:26:39;;;;;;;;;;;;;;;21.41;59.55;99868.03;5160473;27;976;-48
2021/07/18 00:29:05;;;;;;;;;;;;;;;21.32;60.33;99873.56;5160977;27;1975;-56
2021/07/18 00:31:30;;;;;;;;;;;;;;;21.08;61.33;99874.06;5160700;27;794;-56
2021/07/18 00:33:56;;;;;;;;;;;;;;;20.98;59.80;99874.41;5161077;27;814;-48
2021/07/18 00:36:21;;;;;;;;;;;;;;;20.68;60.15;99871.47;5142339;27;790;-47
2021/07/18 00:38:47;;;;;;;;;;;;;;;21.16;62.11;99870.47;5160548;27;771;-48
2021/07/18 00:41:12;;;;;;;;;;;;;;;21.57;61.01;99873.06;5160100;27;1075;-57
2021/07/18 00:43:37;;;;;;;;;;;;;;;21.58;59.94;99858.09;5160952;27;751;-47
2021/07/18 00:46:03;;;;;;;;;;;;;;;21.08;60.02;99863.00;5160841;27;787;-56
2021/07/18 00:48:29;;;;;;;;;;;;;;;20.91;58.73;99857.50;5160796;27;839;-48
2021/07/18 00:50:54;;;;;;;;;;;;;;;20.67;56.21;99859.59;5157324;27;1982;-56
2021/07/18 00:53:20;;;;;;;;;;;;;;;20.25;56.98;99855.59;5139716;27;811;-56
2021/07/18 00:55:46;;;;;;;;;;;;;;;20.34;56.45;99845.38;5139386;27;937;-48
2021/07/18 00:58:14;;;;;;;;;;;;;;;20.68;56.04;99847.41;5139760;27;1482;-56
2021/07/18 01:00:39;;;;;;;;;;;;;;;20.78;56.96;99849.03;5139513;27;755;-48
2021/07/18 01:03:05;;;;;;;;;;;;;;;20.92;57.57;99848.09;5139903;27;759;-55
2021/07/18 01:05:30;;;;;;;;;;;;;;;21.08;57.73;99851.94;5158581;27;1280;-56
2021/07/18 01:07:56;;;;;;;;;;;;;;;21.20;57.99;99843.81;5160367;27;796;-47
2021/07/18 01:10:21;;;;;;;;;;;;;;;21.27;58.08;99850.81;5160098;27;1917;-55
2021/07/18 01:12:47;;;;;;;;;;;;;;;21.34;58.61;99849.16;5159833;27;996;-48
2021/07/18 01:15:13;;;;;;;;;;;;;;;20.99;57.65;99845.63;5141711;27;811;-47
2021/07/18 01:17:38;;;;;;;;;;;;;;;20.89;58.10;99845.94;5159882;27;783;-48
2021/07/18 01:20:04;;;;;;;;;;;;;;;20.92;60.83;99837.84;5160023;27;900;-56
2021/07/18 01:22:30;;;;;;;;;;;;;;;21.16;59.85;99837.31;5160071;27;814;-56
2021/07/18 01:24:55;;;;;;;;;;;;;;;21.29;58.37;99845.75;5159756;27;869;-49
2021/07/18 01:27:21;;;;;;;;;;;;;;;21.24;56.86;99840.38;5159494;27;1012;-58
2021/07/18 01:29:46;;;;;;;;;;;;;;;21.14;55.15;99836.84;5159619;27;1909;-47
2021/07/18 01:32:12;;;;;;;;;;;;;;;20.57;54.94;99853.56;5159319;27;902;-47
2021/07/18 01:34:37;;;;;;;;;;;;;;;20.88;52.93;99845.16;5159635;27;827;-47
2021/07/18 01:37:03;;;;;;;;;;;;;;;21.00;52.21;99841.75;5159793;27;791;-58
2021/07/18 01:39:28;;;;;;;;;;;;;;;20.68;53.39;99846.63;5141064;27;1301;-48
2021/07/18 01:41:54;;;;;;;;;;;;;;;21.04;54.32;99850.97;5159294;27;957;-58
2021/07/18 01:44:20;;;;;;;;;;;;;;;21.01;56.40;99846.09;5159392;27;763;-57
2021/07/18 01:46:45;;;;;;;;;;;;;;;21.12;57.36;99841.88;5159293;27;798;-47
2021/07/18 01:49:13;;;;;;;;;;;;;;;21.10;57.68;99846.13;5140699;27;1921;-57
2021/07/18 01:51:39;;;;;;;;;;;;;;;20.93;56.93;99846.94;5159322;27;1142;-47
2021/07/18 01:54:06;;;;;;;;;;;;;;;20.45;55.66;99843.94;5159197;27;679;-57
2021/07/18 01:56:31;;;;;;;;;;;;;;;20.29;55.40;99842.78;5158604;27;972;-58
2021/07/18 01:58:57;;;;;;;;;;;;;;;20.57;54.28;99854.38;5159327;27;875;-47
2021/07/18 02:01:26;;;;;;;;;;;;;;;20.54;54.00;99843.97;5158901;27;867;-47
2021/07/18 02:03:52;;;;;;;;;;;;;;;20.54;54.38;99843.13;5159337;27;1144;-47
2021/07/18 02:06:17;;;;;;;;;;;;;;;20.83;54.45;99845.31;5159285;27;771;-55
2021/07/18 02:08:43;;;;;;;;;;;;;;;20.81;54.76;99847.59;5158808;27;734;-55
2021/07/18 02:11:08;;;;;;;;;;;;;;;20.55;55.39;99844.78;5158741;27;1906;-49
2021/07/18 02:13:34;;;;;;;;;;;;;;;20.87;54.96;99856.53;5158542;27;858;-56
2021/07/18 02:16:02;;;;;;;;;;;;;;;20.94;54.96;99849.34;5159172;27;819;-49
2021/07/18 02:18:28;;;;;;;;;;;;;;;20.92;55.10;99853.63;5159305;27;770;-48
2021/07/18 02:20:56;;;;;;;;;;;;;;;21.14;54.69;99853.44;5158762;27;838;-48
2021/07/18 02:23:22;;;;;;;;;;;;;;;21.00;55.30;99850.03;5122925;27;739;-56
2021/07/18 02:25:47;;;;;;;;;;;;;;;21.06;55.62;99859.78;5158331;27;972;-56
2021/07/18 02:28:13;;;;;;;;;;;;;;;21.26;54.94;99852.75;5158568;27;759;-47
2021/07/18 02:30:38;;;;;;;;;;;;;;;21.15;55.52;99859.75;5158575;27;1970;-48
2021/07/18 02:33:04;;;;;;;;;;;;;;;20.99;56.00;99860.25;5158596;27;834;-57
2021/07/18 02:35:29;;;;;;;;;;;;;;;20.84;56.49;99858.00;5158570;27;798;-54
2021/07/18 02:37:55;;;;;;;;;;;;;;;20.98;56.26;99858.63;5158605;27;846;-47
2021/07/18 02:40:20;;;;;;;;;;;;;;;20.79;55.44;99863.66;5158647;27;738;-56
2021/07/18 02:42:46;;;;;;;;;;;;;;;20.66;57.44;99873.69;5156934;27;1000;-49
2021/07/18 02:45:12;;;;;;;;;;;;;;;20.63;58.29;99863.31;5158451;27;758;-56
2021/07/18 02:47:37;;;;;;;;;;;;;;;21.02;58.20;99865.13;5158678;27;810;-47
2021/07/18 02:50:06;;;;;;;;;;;;;;;21.27;58.14;99864.63;5158564;27;1968;-59
2021/07/18 02:52:32;;;;;;;;;;;;;;;21.28;58.66;99869.00;5141161;27;1149;-59
2021/07/18 02:54:57;;;;;;;;;;;;;;;20.94;60.54;99867.91;5137554;27;776;-49
2021/07/18 02:57:22;;;;;;;;;;;;;;;21.33;58.65;99872.41;5137309;27;934;-59
2021/07/18 02:59:48;;;;;;;;;;;;;;;20.86;58.19;99872.31;5137620;27;870;-49
2021/07/18 03:02:13;;;;;;;;;;;;;;;21.06;60.58;99861.75;5136955;27;860;-59
2021/07/18 03:04:39;;;;;;;;;;;;;;;21.37;60.82;99865.09;5149243;27;1059;-47
2021/07/18 03:07:04;;;;;;;;;;;;;;;21.48;59.25;99871.09;5158192;27;664;-49
2021/07/18 03:09:30;;;;;;;;;;;;;;;21.17;58.08;99877.66;5158143;27;1913;-57
2021/07/18 03:11:55;;;;;;;;;;;;;;;20.96;56.47;99876.69;5157926;27;1021;-53
2021/07/18 03:14:21;;;;;;;;;;;;;;;20.91;54.78;99874.09;5157570;27;767;-56
2021/07/18 03:16:47;;;;;;;;;;;;;;;20.84;53.25;99883.66;5156757;27;1172;-46
2021/07/18 03:19:13;;;;;;;;;;;;;;;20.96;51.73;99876.69;5158601;27;755;-46
2021/07/18 03:21:38;;;;;;;;;;;;;;;20.91;51.54;99879.63;5139428;27;1223;-47
2021/07/18 03:24:04;;;;;;;;;;;;;;;20.77;53.45;99888.84;5157582;27;755;-57
2021/07/18 03:26:29;;;;;;;;;;;;;;;20.83;55.48;99873.75;5157647;27;993;-50
2021/07/18 03:28:55;;;;;;;;;;;;;;;21.00;56.60;99877.69;5157837;27;754;-48
2021/07/18 03:31:20;;;;;;;;;;;;;;;21.04;57.91;99881.38;5157725;27;1968;-48
2021/07/18 03:33:46;;;;;;;;;;;;;;;21.10;58.66;99885.63;5157647;27;779;-57
2021/07/18 03:36:11;;;;;;;;;;;;;;;21.13;59.44;99882.19;5157570;27;870;-56
2021/07/18 03:38:36;;;;;;;;;;;;;;;20.94;59.48;99884.47;5157704;27;747;-52
2021/07/18 03:41:02;;;;;;;;;;;;;;;20.83;57.87;99889.50;5157307;27;989;-59
2021/07/18 03:43:27;;;;;;;;;;;;;;;20.83;60.67;99890.34;5157613;27;794;-58
2021/07/18 03:45:53;;;;;;;;;;;;;;;21.30;61.06;99886.09;5158031;27;767;-51
2021/07/18 03:48:18;;;;;;;;;;;;;;;21.44;60.91;99896.97;5158065;27;755;-59
2021/07/18 03:50:43;;;;;;;;;;;;;;;21.39;60.67;99889.66;5157618;27;1913;-60
2021/07/18 03:53:09;;;;;;;;;;;;;;;21.26;61.36;99885.94;5162654;27;1334;-59
2021/07/18 03:55:34;;;;;;;;;;;;;;;21.40;60.98;99874.69;5170793;27;779;-51
2021/07/18 03:58:00;;;;;;;;;;;;;;;21.22;58.69;99889.69;5162347;27;952;-56
2021/07/18 04:00:25;;;;;;;;;;;;;;;20.93;59.40;99897.50;5161730;27;783;-48
2021/07/18 04:02:51;;;;;;;;;;;;;;;21.12;62.89;99886.09;5163728;27;747;-50
2021/07/18 04:05:16;;;;;;;;;;;;;;;21.35;63.00;99883.97;5181615;27;930;-46
2021/07/18 04:07:41;;;;;;;;;;;;;;;21.61;61.76;99885.09;5182472;27;834;-62
2021/07/18 04:10:07;;;;;;;;;;;;;;;21.45;62.15;99893.88;5182393;27;1976;-60
2021/07/18 04:12:33;;;;;;;;;;;;;;;21.30;62.07;99889.66;5166333;27;1012;-68
2021/07/18 04:14:58;;;;;;;;;;;;;;;21.12;59.27;99891.63;5161455;27;741;-46
2021/07/18 04:17:24;;;;;;;;;;;;;;;21.15;57.39;99885.47;5161252;27;775;-56
2021/07/18 04:19:49;;;;;;;;;;;;;;;21.37;60.99;99892.75;5161027;27;797;-61
2021/07/18 04:22:14;;;;;;;;;;;;;;;21.23;63.72;99888.53;5161186;27;915;-47
2021/07/18 04:24:40;;;;;;;;;;;;;;;21.28;61.65;99889.19;5160859;27;873;-55
2021/07/18 04:27:05;;;;;;;;;;;;;;;21.44;61.84;99889.47;5160620;27;984;-46
2021/07/18 04:29:31;;;;;;;;;;;;;;;21.43;62.20;99893.38;5161125;27;1913;-57
2021/07/18 04:31:56;;;;;;;;;;;;;;;21.61;61.86;99890.63;5161352;27;740;-46
2021/07/18 04:34:22;;;;;;;;;;;;;;;21.58;59.98;99894.06;5160991;27;754;-54
2021/07/18 04:36:47;;;;;;;;;;;;;;;21.16;58.33;99898.13;5161013;27;826;-48
2021/07/18 04:39:13;;;;;;;;;;;;;;;21.00;61.25;99903.34;5160735;27;782;-63
2021/07/18 04:41:38;;;;;;;;;;;;;;;21.26;63.70;99901.72;5160577;27;949;-46
2021/07/18 04:44:04;;;;;;;;;;;;;;;21.45;64.27;99906.91;5161034;27;815;-45
2021/07/18 04:46:30;;;;;;;;;;;;;;;21.51;63.66;99902.81;5141998;27;1077;-60
2021/07/18 04:48:55;;;;;;;;;;;;;;;21.58;63.16;99905.13;5160803;27;759;-48
2021/07/18 04:51:20;;;;;;;;;;;;;;;21.67;62.85;99892.06;5160462;27;1906;-50
2021/07/18 04:53:46;;;;;;;;;;;;;;;21.44;60.36;99899.75;5160572;27;517;-48
2021/07/18 04:56:11;;;;;;;;;;;;;;;20.98;58.42;99890.97;5159679;27;941;-57
2021/07/18 04:58:37;;;;;;;;;;;;;;;21.16;61.17;99898.13;5160453;27;826;-46
2021/07/18 05:01:03;;;;;;;;;;;;;;;21.18;62.25;99900.56;5160458;27;799;-48
2021/07/18 05:03:28;;;;;;;;;;;;;;;21.36;61.16;99901.38;5160510;27;1231;-44
2021/07/18 05:05:54;;;;;;;;;;;;;;;21.26;59.42;99896.19;5159503;27;727;-59
2021/07/18 05:08:20;;;;;;;;;;;;;;;21.29;58.37;99901.06;5160206;27;793;-45
2021/07/18 05:10:46;;;;;;;;;;;;;;;21.10;57.60;99904.97;5159732;27;1976;-46
2021/07/18 05:13:11;;;;;;;;;;;;;;;20.89;57.69;99907.56;5160140;27;857;-52
2021/07/18 05:15:37;;;;;;;;;;;;;;;20.93;57.26;99904.97;5159874;27;774;-49
2021/07/18 05:18:10;;;;;;;;;;;;;;;20.69;56.27;99900.72;5160429;27;807;-57
2021/07/18 05:20:36;;;;;;;;;;;;;;;20.41;58.32;99900.97;5159887;27;775;-45
2021/07/18 05:23:01;;;;;;;;;;;;;;;20.91;57.01;99896.19;5159788;27;802;-45
2021/07/18 05:25:27;;;;;;;;;;;;;;;21.04;58.21;99895.19;5160077;27;815;-48
2021/07/18 05:27:52;;;;;;;;;;;;;;;21.53;58.93;99897.78;5159281;27;960;-59
2021/07/18 05:30:17;;;;;;;;;;;;;;;21.29;60.68;99901.84;5149331;27;1913;-47
2021/07/18 05:32:43;;;;;;;;;;;;;;;21.57;61.33;99897.94;5157698;27;835;-48
2021/07/18 05:35:09;;;;;;;;;;;;;;;21.53;60.38;99898.63;5159426;27;758;-45
2021/07/18 05:37:34;;;;;;;;;;;;;;;21.37;57.63;99900.22;5160053;27;858;-48
2021/07/18 05:40:00;;;;;;;;;;;;;;;21.27;60.16;99909.69;5159833;27;818;-58
2021/07/18 05:42:26;;;;;;;;;;;;;;;21.47;63.56;99908.19;5144544;27;1008;-47
2021/07/18 05:44:51;;;;;;;;;;;;;;;21.78;64.48;99904.41;5138814;27;817;-59
2021/07/18 05:47:17;;;;;;;;;;;;;;;22.10;64.22;99913.25;5138487;27;842;-46
2021/07/18 05:49:42;;;;;;;;;;;;;;;22.02;64.42;99916.84;5138471;27;1972;-57
2021/07/18 05:52:08;;;;;;;;;;;;;;;21.77;63.75;99916.63;5138811;27;1253;-45
2021/07/18 05:54:35;;;;;;;;;;;;;;;21.17;60.50;99916.34;5138576;27;787;-57
2021/07/18 05:57:00;;;;;;;;;;;;;;;20.73;56.45;99912.75;5148421;27;941;-57
2021/07/18 05:59:26;;;;;;;;;;;;;;;20.35;57.45;99916.03;5159356;27;822;-49
2021/07/18 06:01:51;;;;;;;;;;;;;;;20.07;56.16;99919.03;5159103;27;861;-57
2021/07/18 06:04:17;;;;;;;;;;;;;;;20.48;55.89;99911.53;5158988;27;1077;-46
2021/07/18 06:06:42;;;;;;;;;;;;;;;21.11;58.25;99916.84;5159051;27;798;-56
2021/07/18 06:09:07;;;;;;;;;;;;;;;21.41;60.50;99920.56;5158953;27;845;-54
2021/07/18 06:11:34;;;;;;;;;;;;;;;21.33;62.28;99918.63;5159134;27;1905;-57
2021/07/18 06:14:00;;;;;;;;;;;;;;;21.49;63.85;99916.97;5158582;27;849;-57
2021/07/18 06:16:26;;;;;;;;;;;;;;;21.48;62.04;99909.81;5158203;27;783;-45
2021/07/18 06:18:51;;;;;;;;;;;;;;;21.16;59.02;99909.19;5158691;27;810;-60
2021/07/18 06:21:17;;;;;;;;;;;;;;;21.09;59.31;99911.63;5158830;27;739;-56
2021/07/18 06:23:42;;;;;;;;;;;;;;;21.60;62.50;99913.88;5158702;27;841;-57
2021/07/18 06:26:08;;;;;;;;;;;;;;;21.77;63.96;99908.31;5158181;27;1001;-47
2021/07/18 06:28:33;;;;;;;;;;;;;;;21.95;64.38;99920.16;5139346;27;890;-56
2021/07/18 06:30:59;;;;;;;;;;;;;;;22.07;63.95;99913.91;5158810;27;1974;-55
2021/07/18 06:33:24;;;;;;;;;;;;;;;21.70;64.13;99906.06;5158741;27;802;-55
2021/07/18 06:35:49;;;;;;;;;;;;;;;21.53;62.28;99912.44;5158475;27;798;-47
2021/07/18 06:38:15;;;;;;;;;;;;;;;20.80;57.28;99906.75;5158400;27;747;-47
2021/07/18 06:40:41;;;;;;;;;;;;;;;20.51;58.83;99911.69;5158386;27;826;-60
2021/07/18 06:43:06;;;;;;;;;;;;;;;20.40;58.25;99907.63;5157962;27;952;-44
2021/07/18 06:45:32;;;;;;;;;;;;;;;20.72;56.64;99913.06;5158742;27;762;-46
2021/07/18 06:47:57;;;;;;;;;;;;;;;20.83;56.39;99917.13;5158272;27;528;-49
2021/07/18 06:50:22;;;;;;;;;;;;;;;20.93;56.32;99904.97;5158124;27;1964;-45
2021/07/18 06:52:48;;;;;;;;;;;;;;;20.77;56.74;99912.91;5120024;27;1397;-43
2021/07/18 06:55:13;;;;;;;;;;;;;;;20.88;56.47;99916.19;5137482;27;747;-45
2021/07/18 06:57:39;;;;;;;;;;;;;;;20.87;56.64;99912.59;5137359;27;966;-48
2021/07/18 07:00:06;;;;;;;;;;;;;;;21.11;55.93;99906.59;5137896;27;755;-46
2021/07/18 07:02:32;;;;;;;;;;;;;;;21.05;56.08;99909.84;5137284;27;818;-44
2021/07/18 07:04:57;;;;;;;;;;;;;;;21.03;56.30;99904.66;5151779;27;1026;-47
2021/07/18 07:07:23;;;;;;;;;;;;;;;21.19;55.85;99903.00;5158154;27;823;-46
2021/07/18 07:09:48;;;;;;;;;;;;;;;21.12;54.82;99899.13;5157943;27;1917;-45
2021/07/18 07:12:13;;;;;;;;;;;;;;;20.68;57.52;99902.66;5157851;27;953;-44
2021/07/18 07:14:39;;;;;;;;;;;;;;;21.05;56.87;99896.03;5158032;27;672;-47
2021/07/18 07:17:04;;;;;;;;;;;;;;;21.53;57.94;99895.84;5157726;27;751;-45
2021/07/18 07:19:30;;;;;;;;;;;;;;;21.66;59.48;99893.22;5157854;27;842;-47
2021/07/18 07:21:55;;;;;;;;;;;;;;;21.63;60.77;99899.38;5158135;27;778;-44
2021/07/18 07:24:21;;;;;;;;;;;;;;;21.63;61.45;99893.84;5157617;27;799;-45
2021/07/18 07:26:46;;;;;;;;;;;;;;;21.37;58.69;99897.47;5157345;27;946;-45
2021/07/18 07:29:12;;;;;;;;;;;;;;;20.80;57.54;99893.75;5160619;27;755;-45
2021/07/18 07:31:37;;;;;;;;;;;;;;;21.15;60.37;99896.53;5161898;27;1974;-45
2021/07/18 07:34:02;;;;;;;;;;;;;;;21.43;60.08;99896.16;5162122;27;811;-46
2021/07/18 07:36:28;;;;;;;;;;;;;;;21.30;59.86;99902.69;5162506;27;810;-45
2021/07/18 07:38:53;;;;;;;;;;;;;;;21.07;59.04;99904.78;5162163;27;735;-46
2021/07/18 07:41:19;;;;;;;;;;;;;;;21.25;57.62;99902.84;5161609;27;1020;-47
2021/07/18 07:43:45;;;;;;;;;;;;;;;21.27;56.84;99906.13;5161560;27;798;-47
2021/07/18 07:46:10;;;;;;;;;;;;;;;21.26;56.54;99901.72;5162077;27;771;-46
2021/07/18 07:48:35;;;;;;;;;;;;;;;21.13;56.58;99904.31;5162380;27;801;-44
2021/07/18 07:51:04;;;;;;;;;;;;;;;20.90;55.31;99900.91;5162186;27;1977;-44
2021/07/18 07:53:29;;;;;;;;;;;;;;;20.70;57.53;99904.31;5161878;27;978;-44
2021/07/18 07:55:55;;;;;;;;;;;;;;;20.76;57.23;99906.59;5162110;27;937;-48
2021/07/18 07:58:20;;;;;;;;;;;;;;;21.05;57.94;99896.84;5161042;27;775;-44
2021/07/18 08:00:46;;;;;;;;;;;;;;;21.56;58.62;99901.84;5161739;27;770;-44
2021/07/18 08:03:11;;;;;;;;;;;;;;;21.23;61.03;99896.84;5161648;27;809;-44
2021/07/18 08:05:37;;;;;;;;;;;;;;;21.64;60.95;99907.38;5154789;27;1442;-45
2021/07/18 08:08:03;;;;;;;;;;;;;;;21.29;60.48;99901.06;5155358;27;1171;-44
2021/07/18 08:10:29;;;;;;;;;;;;;;;21.01;57.79;99904.97;5161189;27;1976;-44
2021/07/18 08:12:55;;;;;;;;;;;;;;;21.40;60.44;99901.53;5142481;27;944;-46
2021/07/18 08:15:21;;;;;;;;;;;;;;;21.70;62.77;99903.28;5140598;27;811;-44
2021/07/18 08:17:46;;;;;;;;;;;;;;;21.99;63.21;99909.22;5140769;27;774;-45
2021/07/18 08:20:14;;;;;;;;;;;;;;;21.99;63.16;99911.97;5140841;27;711;-45
2021/07/18 08:22:40;;;;;;;;;;;;;;;21.74;63.16;99900.69;5122060;27;908;-47
2021/07/18 08:25:06;;;;;;;;;;;;;;;21.60;60.97;99897.28;5140310;27;782;-45
2021/07/18 08:27:31;;;;;;;;;;;;;;;21.10;56.20;99904.97;5139792;27;973;-44
2021/07/18 08:29:57;;;;;;;;;;;;;;;21.01;58.74;99901.38;5140153;27;1910;-44
2021/07/18 08:32:22;;;;;;;;;;;;;;;20.73;58.38;99907.22;5140529;27;790;-45
2021/07/18 08:34:48;;;;;;;;;;;;;;;20.70;56.52;99901.53;5140090;27;866;-43
2021/07/18 08:37:13;;;;;;;;;;;;;;;20.77;55.56;99902.66;5140275;27;759;-43
2021/07/18 08:39:39;;;;;;;;;;;;;;;21.08;55.16;99901.72;5139185;27;783;-44
2021/07/18 08:42:06;;;;;;;;;;;;;;;21.31;54.71;99909.84;5139384;27;1004;-43
2021/07/18 08:44:31;;;;;;;;;;;;;;;21.11;55.30;99906.59;5139990;27;791;-43
2021/07/18 08:46:57;;;;;;;;;;;;;;;21.23;55.30;99902.38;5140144;27;747;-44
2021/07/18 08:49:22;;;;;;;;;;;;;;;21.16;55.25;99909.19;5139450;27;1960;-43
2021/07/18 08:51:48;;;;;;;;;;;;;;;21.09;55.77;99908.88;5121368;27;1150;-45
2021/07/18 08:54:14;;;;;;;;;;;;;;;21.15;55.96;99906.75;5139712;27;862;-43
2021/07/18 08:56:40;;;;;;;;;;;;;;;21.04;55.27;99906.25;5128145;27;1127;-44
2021/07/18 08:59:06;;;;;;;;;;;;;;;20.66;55.41;99912.38;5141583;27;957;-46
2021/07/18 09:01:32;;;;;;;;;;;;;;;20.61;59.31;99909.78;5160246;27;775;-43
2021/07/18 09:03:57;;;;;;;;;;;;;;;21.30;60.25;99908.22;5160102;27;1258;-44
2021/07/18 09:06:23;;;;;;;;;;;;;;;21.65;60.78;99908.19;5160476;27;822;-44
2021/07/18 09:08:48;;;;;;;;;;;;;;;21.56;63.05;99888.03;5141641;27;798;-43
2021/07/18 09:11:23;;;;;;;;;;;;;;;21.52;61.81;99904.47;5160084;27;1909;-44
2021/07/18 09:13:56;;;;;;;;;;;;;;;21.18;57.93;99887.56;5141288;27;1264;-43
2021/07/18 09:16:25;;;;;;;;;;;;;;;21.44;59.69;99903.31;5160083;27;758;-46
2021/07/18 09:18:50;;;;;;;;;;;;;;;21.36;60.93;99901.38;5160077;27;747;-44
2021/07/18 09:21:16;;;;;;;;;;;;;;;21.39;60.52;99897.13;5160192;27;751;-46
2021/07/18 09:23:41;;;;;;;;;;;;;;;21.48;59.20;99898.75;5159696;27;746;-45
2021/07/18 09:26:16;;;;;;;;;;;;;;;21.11;58.74;99889.19;5159555;27;1020;-45
2021/07/18 09:28:41;;;;;;;;;;;;;;;21.48;56.66;99889.66;5159699;27;961;-48
2021/07/18 09:31:25;;;;;;;;;;;;;;;21.27;56.80;99898.63;5159414;27;1910;-46
2021/07/18 09:33:51;;;;;;;;;;;;;;;21.34;55.96;99898.13;5159853;27;743;-46
2021/07/18 09:36:17;;;;;;;;;;;;;;;21.25;55.88;99891.78;5141247;27;1374;-44
2021/07/18 09:38:42;;;;;;;;;;;;;;;21.38;55.16;99893.56;5159729;27;810;-47
2021/07/18 09:41:08;;;;;;;;;;;;;;;21.08;55.34;99896.19;5140422;27;945;-48
2021/07/18 09:43:33;;;;;;;;;;;;;;;20.71;53.93;99898.44;5159704;27;799;-51
2021/07/18 09:46:00;;;;;;;;;;;;;;;20.67;57.11;99902.97;5159496;27;746;-47
2021/07/18 09:48:36;;;;;;;;;;;;;;;21.03;56.21;99894.41;5159839;27;782;-44
2021/07/18 09:51:08;;;;;;;;;;;;;;;21.37;58.00;99897.47;5154787;27;1984;-45
2021/07/18 09:53:34;;;;;;;;;;;;;;;21.60;59.14;99900.88;5138629;27;767;-46
2021/07/18 09:56:08;;;;;;;;;;;;;;;21.57;60.99;99893.22;5139659;27;1225;-47
2021/07/18 09:58:34;;;;;;;;;;;;;;;21.68;60.98;99896.47;5136146;27;1216;-58
2021/07/18 10:01:00;;;;;;;;;;;;;;;21.10;58.11;99896.69;5137991;27;1261;-50
2021/07/18 10:03:27;;;;;;;;;;;;;;;20.71;57.88;99892.13;5140547;27;1276;-43
2021/07/18 10:06:08;;;;;;;;;;;;;;;20.91;59.13;99899.75;5160140;27;1068;-49
2021/07/18 10:08:38;;;;;;;;;;;;;;;20.92;57.98;99908.88;5135257;27;1216;-45
2021/07/18 10:11:04;;;;;;;;;;;;;;;20.69;56.77;99906.22;5158540;27;1959;-51
2021/07/18 10:13:30;;;;;;;;;;;;;;;20.85;55.29;99912.91;5158923;27;858;-49
2021/07/18 10:15:55;;;;;;;;;;;;;;;20.86;55.49;99908.22;5158983;27;818;-44
2021/07/18 10:18:21;;;;;;;;;;;;;;;21.17;54.91;99905.28;5158852;27;770;-53
2021/07/18 10:20:46;;;;;;;;;;;;;;;21.00;55.73;99905.31;5139702;27;977;-45
2021/07/18 10:23:11;;;;;;;;;;;;;;;21.12;55.74;99907.41;5158886;27;890;-58
2021/07/18 10:25:37;;;;;;;;;;;;;;;21.23;55.35;99907.91;5158736;27;480;-45
2021/07/18 10:28:03;;;;;;;;;;;;;;;21.34;55.20;99898.94;5158266;27;957;-43
2021/07/18 10:30:29;;;;;;;;;;;;;;;21.07;56.32;99900.09;5158631;27;1909;-46
2021/07/18 10:32:55;;;;;;;;;;;;;;;21.00;56.71;99899.78;5158588;27;767;-44
2021/07/18 10:35:22;;;;;;;;;;;;;;;21.10;56.39;99895.88;5158905;27;792;-52
2021/07/18 10:37:48;;;;;;;;;;;;;;;21.26;55.99;99896.19;5158765;27;759;-45
2021/07/18 10:40:19;;;;;;;;;;;;;;;20.97;55.42;99892.94;5158409;27;743;-58
2021/07/18 10:42:45;;;;;;;;;;;;;;;20.88;56.76;99892.13;5158346;27;996;-46
2021/07/18 10:45:23;;;;;;;;;;;;;;;21.03;57.36;99896.38;5158116;27;853;-45
2021/07/18 10:48:10;;;;;;;;;;;;;;;21.37;57.71;99903.00;5158704;27;831;-46
2021/07/18 10:50:45;;;;;;;;;;;;;;;21.75;59.05;99890.41;5158387;27;1978;-45
2021/07/18 10:53:17;;;;;;;;;;;;;;;21.98;59.60;99889.03;5158468;27;846;-51
2021/07/18 10:55:42;;;;;;;;;;;;;;;21.73;61.40;99889.94;5158348;27;751;-47
2021/07/18 10:58:08;;;;;;;;;;;;;;;21.68;61.29;99890.94;5157436;27;901;-49
2021/07/18 11:00:33;;;;;;;;;;;;;;;21.29;56.56;99890.00;5158421;27;739;-54
2021/07/18 11:03:05;;;;;;;;;;;;;;;20.59;56.29;99893.50;5157684;27;810;-46
2021/07/18 11:05:40;;;;;;;;;;;;;;;20.28;55.51;99890.84;5158216;27;1010;-43
2021/07/18 11:08:06;;;;;;;;;;;;;;;19.99;54.14;99883.91;5158111;27;754;-44
2021/07/18 11:10:45;;;;;;;;;;;;;;;20.37;53.39;99888.09;5157595;27;1913;-45
2021/07/18 11:13:10;;;;;;;;;;;;;;;20.82;53.08;99898.97;5157790;27;902;-45
2021/07/18 11:15:36;;;;;;;;;;;;;;;20.80;54.21;99885.47;5157961;27;842;-45
2021/07/18 11:18:09;;;;;;;;;;;;;;;21.06;54.28;99894.91;5158021;27;767;-53
2021/07/18 11:20:37;;;;;;;;;;;;;;;20.95;55.33;99892.44;5158133;27;763;-50
2021/07/18 11:23:04;;;;;;;;;;;;;;;20.99;55.63;99884.34;5157572;27;811;-55
2021/07/18 11:25:42;;;;;;;;;;;;;;;21.51;54.42;99881.50;5157821;27;838;-53
2021/07/18 11:28:26;;;;;;;;;;;;;;;21.10;55.99;99896.69;5157517;27;945;-46
2021/07/18 11:30:52;;;;;;;;;;;;;;;21.26;55.64;99885.94;5157561;27;1976;-54
2021/07/18 11:33:27;;;;;;;;;;;;;;;21.36;55.68;99879.25;5139483;27;847;-45
2021/07/18 11:35:53;;;;;;;;;;;;;;;21.40;55.77;99877.44;5158088;27;783;-45
2021/07/18 11:38:18;;;;;;;;;;;;;;;20.97;55.32;99887.41;5158017;27;786;-44
2021/07/18 11:40:43;;;;;;;;;;;;;;;20.61;57.15;99893.22;5139586;27;1020;-53
2021/07/18 11:43:09;;;;;;;;;;;;;;;20.89;58.19;99882.69;5139575;27;946;-45
2021/07/18 11:45:34;;;;;;;;;;;;;;;21.40;59.31;99891.28;5157397;27;806;-48
2021/07/18 11:48:00;;;;;;;;;;;;;;;21.71;60.48;99876.44;5139089;27;800;-45
2021/07/18 11:50:26;;;;;;;;;;;;;;;21.97;61.22;99892.94;5157755;27;1984;-51
2021/07/18 11:52:52;;;;;;;;;;;;;;;21.86;61.72;99881.41;5157725;27;1126;-45
2021/07/18 11:55:18;;;;;;;;;;;;;;;21.45;59.41;99882.81;5157624;27;823;-46
2021/07/18 11:57:44;;;;;;;;;;;;;;;21.13;56.59;99898.78;5157182;27;953;-46
2021/07/18 12:00:10;;;;;;;;;;;;;;;20.88;59.45;99894.09;5157563;27;834;-45
2021/07/18 12:02:38;;;;;;;;;;;;;;;21.18;60.67;99890.34;5157332;27;755;-45
2021/07/18 12:05:07;;;;;;;;;;;;;;;21.17;60.92;99897.00;5157252;27;1314;-47
2021/07/18 12:07:32;;;;;;;;;;;;;;;21.13;60.54;99893.25;5157838;27;809;-55
2021/07/18 12:09:58;;;;;;;;;;;;;;;21.13;59.73;99890.50;5157535;27;1918;-44
2021/07/18 12:12:23;;;;;;;;;;;;;;;21.18;58.38;99887.56;5156825;27;953;-45
2021/07/18 12:14:52;;;;;;;;;;;;;;;21.23;57.42;99891.31;5157269;27;818;-46
2021/07/18 12:17:18;;;;;;;;;;;;;;;21.23;56.63;99888.53;5161437;27;799;-46
2021/07/18 12:19:43;;;;;;;;;;;;;;;21.19;56.10;99888.38;5161278;27;855;-52
2021/07/18 12:22:10;;;;;;;;;;;;;;;21.19;55.93;99891.94;5161682;27;806;-44
2021/07/18 12:24:37;;;;;;;;;;;;;;;21.18;55.69;99895.88;5161208;27;786;-46
2021/07/18 12:27:04;;;;;;;;;;;;;;;21.22;55.60;99897.97;5160240;27;941;-46
2021/07/18 12:29:30;;;;;;;;;;;;;;;21.08;55.66;99907.22;5142534;27;1913;-45
2021/07/18 12:31:56;;;;;;;;;;;;;;;20.88;54.18;99900.41;5160935;27;855;-44
2021/07/18 12:34:25;;;;;;;;;;;;;;;20.52;57.12;99905.06;5161048;27;947;-46
2021/07/18 12:36:53;;;;;;;;;;;;;;;20.89;56.07;99910.34;5161121;27;786;-51
2021/07/18 12:39:19;;;;;;;;;;;;;;;21.06;57.02;99901.22;5161530;27;769;-51
2021/07/18 12:41:45;;;;;;;;;;;;;;;21.38;58.37;99904.63;5160194;27;941;-46
2021/07/18 12:44:11;;;;;;;;;;;;;;;21.43;60.12;99896.16;5160878;27;815;-53
2021/07/18 12:46:37;;;;;;;;;;;;;;;21.51;60.99;99894.53;5141648;27;926;-47
2021/07/18 12:49:06;;;;;;;;;;;;;;;21.73;59.07;99898.22;5161089;27;817;-50
2021/07/18 12:51:32;;;;;;;;;;;;;;;21.18;57.33;99906.09;5151923;27;1917;-46
2021/07/18 12:53:58;;;;;;;;;;;;;;;21.04;58.11;99900.72;5138934;27;855;-46
2021/07/18 12:56:23;;;;;;;;;;;;;;;21.18;60.44;99898.63;5139463;27;1066;-44
2021/07/18 12:58:51;;;;;;;;;;;;;;;21.08;61.03;99910.00;5139857;27;751;-47
2021/07/18 13:01:18;;;;;;;;;;;;;;;21.33;59.32;99896.50;5121739;27;827;-46